Time;durP1;ratioP1;P1;durP2;ratioP2;P2;SDS_P1;SDS_P2;PMS_P1;PMS_P2;Temp;Humidity;BMP_temperature;BMP_pressure;BME280_temperature;BME280_humidity;BME280_pressure;Samples;Min_cycle;Max_cycle;Signal;HPM_P1;HPM_P2
2022/09/28 00:02:14;;;;;;;3.13;1.23;;;8.80;99.90;;;;;;5078466;28;20182;-87
2022/09/28 00:04:40;;;;;;;2.47;1.17;;;8.80;99.90;;;;;;5096420;28;20202;-87
2022/09/28 00:07:05;;;;;;;2.53;0.60;;;8.70;99.90;;;;;;5078049;28;20172;-87
2022/09/28 00:09:30;;;;;;;1.57;0.73;;;8.70;99.90;;;;;;5095605;28;20182;-86
2022/09/28 00:11:56;;;;;;;3.23;1.77;;;8.70;99.90;;;;;;5078117;28;20255;-86
2022/09/28 00:14:22;;;;;;;1.13;0.50;;;8.80;99.90;;;;;;5096095;28;20630;-86
2022/09/28 00:16:48;;;;;;;1.50;0.60;;;8.80;99.90;;;;;;5077930;28;20174;-86
2022/09/28 00:19:13;;;;;;;1.70;0.87;;;8.80;99.90;;;;;;5096259;28;20479;-86
2022/09/28 00:21:40;;;;;;;2.73;1.27;;;8.80;99.90;;;;;;5095972;28;20232;-86
2022/09/28 00:24:16;;;;;;;1.60;0.77;;;8.80;99.90;;;;;;5095395;28;20287;-86
2022/09/28 00:26:45;;;;;;;2.00;0.90;;;8.70;99.90;;;;;;5095759;28;20490;-86
2022/09/28 00:29:17;;;;;;;2.20;0.90;;;8.80;99.90;;;;;;5077676;28;20740;-87
2022/09/28 00:31:43;;;;;;;3.13;1.00;;;8.70;99.90;;;;;;5077681;28;20950;-86
2022/09/28 00:34:09;;;;;;;4.17;1.47;;;8.70;99.90;;;;;;5095420;28;20437;-86
2022/09/28 00:36:34;;;;;;;4.07;1.87;;;8.70;99.90;;;;;;5095817;28;20177;-87
2022/09/28 00:39:05;;;;;;;2.10;1.07;;;8.60;99.90;;;;;;5077292;28;20170;-87
2022/09/28 00:41:30;;;;;;;1.70;0.47;;;8.60;99.90;;;;;;5095715;28;20174;-87
2022/09/28 00:44:23;;;;;;;2.77;1.07;;;8.60;99.90;;;;;;5089754;28;20458;-88
2022/09/28 00:47:01;;;;;;;1.13;0.50;;;8.50;99.90;;;;;;5076822;28;20229;-87
2022/09/28 00:49:35;;;;;;;1.80;0.60;;;8.50;99.90;;;;;;5095269;28;20441;-87
2022/09/28 00:52:03;;;;;;;1.90;1.00;;;8.50;99.90;;;;;;5095158;28;20469;-88
2022/09/28 00:54:29;;;;;;;3.60;0.90;;;8.40;99.90;;;;;;5076523;28;20414;-86
2022/09/28 00:56:55;;;;;;;1.40;0.80;;;8.40;99.90;;;;;;5076952;28;20423;-87
2022/09/28 00:59:23;;;;;;;2.43;0.93;;;8.30;99.90;;;;;;5095189;28;20178;-87
2022/09/28 01:01:49;;;;;;;1.97;0.77;;;8.30;99.90;;;;;;5095133;28;20492;-87
2022/09/28 01:04:15;;;;;;;1.93;0.60;;;8.20;99.90;;;;;;5095278;28;20481;-87
2022/09/28 01:06:43;;;;;;;1.67;0.73;;;8.10;99.90;;;;;;5077042;28;20835;-87
2022/09/28 01:09:10;;;;;;;2.20;0.90;;;8.10;99.90;;;;;;5094823;28;20211;-88
2022/09/28 01:11:38;;;;;;;1.50;0.67;;;8.10;99.90;;;;;;5077227;28;20480;-87
2022/09/28 01:14:06;;;;;;;3.40;1.10;;;8.00;99.90;;;;;;5077381;28;20430;-88
2022/09/28 01:16:41;;;;;;;1.70;0.60;;;8.00;99.90;;;;;;5095354;28;20416;-88
2022/09/28 01:19:35;;;;;;;2.60;1.20;;;8.00;99.90;;;;;;5077228;28;20437;-89
2022/09/28 01:22:25;;;;;;;1.83;1.07;;;8.00;99.90;;;;;;5077063;28;20453;-89
2022/09/28 01:25:17;;;;;;;3.57;1.40;;;8.00;99.90;;;;;;5076666;28;20516;-88
2022/09/28 01:27:53;;;;;;;2.70;0.93;;;7.90;99.90;;;;;;5077020;28;20860;-89
2022/09/28 01:30:20;;;;;;;2.10;1.20;;;7.80;99.90;;;;;;5077245;28;20425;-90
2022/09/28 01:32:53;;;;;;;2.20;1.40;;;7.80;99.90;;;;;;5095089;28;20418;-89
2022/09/28 01:35:22;;;;;;;1.33;0.63;;;7.80;99.90;;;;;;5076745;28;20454;-88
2022/09/28 01:37:53;;;;;;;3.90;0.87;;;7.70;99.90;;;;;;5077086;28;20784;-88
2022/09/28 01:40:21;;;;;;;1.83;1.23;;;7.70;99.90;;;;;;5094847;28;20415;-88
2022/09/28 01:42:52;;;;;;;2.03;1.30;;;7.70;99.90;;;;;;5094646;28;20470;-88
2022/09/28 01:45:27;;;;;;;3.87;1.80;;;7.60;99.90;;;;;;5094466;28;20469;-88
2022/09/28 01:47:57;;;;;;;2.67;1.40;;;7.40;99.90;;;;;;5094559;28;20457;-89
2022/09/28 01:50:25;;;;;;;2.90;1.70;;;7.30;99.90;;;;;;5094766;28;20416;-88
2022/09/28 01:53:18;;;;;;;2.60;1.17;;;7.30;99.90;;;;;;5076631;28;20476;-88
2022/09/28 01:55:56;;;;;;;3.23;1.47;;;7.30;99.90;;;;;;5093519;28;20426;-89
2022/09/28 01:58:22;;;;;;;3.97;2.30;;;7.30;99.90;;;;;;5094465;28;20925;-87
2022/09/28 02:00:54;;;;;;;2.70;1.47;;;7.30;99.90;;;;;;5094538;28;20415;-88
2022/09/28 02:03:30;;;;;;;5.90;1.50;;;7.20;99.90;;;;;;5076030;28;20260;-87
2022/09/28 02:06:04;;;;;;;3.00;1.50;;;7.10;99.90;;;;;;5094004;28;20518;-87
2022/09/28 02:08:38;;;;;;;2.80;1.47;;;7.00;99.90;;;;;;5094024;28;20453;-85
2022/09/28 02:11:12;;;;;;;2.60;1.73;;;7.00;99.90;;;;;;5075472;28;20450;-87
2022/09/28 02:13:53;;;;;;;3.60;1.47;;;6.90;99.90;;;;;;5075696;28;20507;-87
2022/09/28 02:16:32;;;;;;;3.20;2.17;;;7.00;99.90;;;;;;5093800;28;20773;-87
2022/09/28 02:18:57;;;;;;;5.07;1.70;;;6.90;99.90;;;;;;5093864;28;20418;-86
2022/09/28 02:21:42;;;;;;;2.50;1.47;;;6.80;99.90;;;;;;5093856;28;20553;-86
2022/09/28 02:24:45;;;;;;;3.63;1.37;;;6.70;99.90;;;;;;5075184;28;20557;-88
2022/09/28 02:27:34;;;;;;;4.50;2.00;;;6.70;99.90;;;;;;5035095;28;20972;-89
2022/09/28 02:30:01;;;;;;;3.43;1.20;;;6.60;99.90;;;;;;5075587;28;20486;-87
2022/09/28 02:32:28;;;;;;;2.60;1.20;;;6.60;99.90;;;;;;5093715;28;20410;-86
2022/09/28 02:34:54;;;;;;;2.10;0.87;;;6.50;99.90;;;;;;5074166;28;20421;-86
2022/09/28 02:37:20;;;;;;;1.50;0.93;;;6.40;99.90;;;;;;5074052;28;20437;-88
2022/09/28 02:39:45;;;;;;;2.03;1.20;;;6.40;99.90;;;;;;5093297;28;20417;-86
2022/09/28 02:42:19;;;;;;;2.93;1.20;;;6.30;99.90;;;;;;5092176;28;20185;-86
2022/09/28 02:44:56;;;;;;;3.43;1.27;;;6.30;99.90;;;;;;5074147;28;20210;-86
2022/09/28 02:47:44;;;;;;;1.60;0.97;;;6.30;99.90;;;;;;5075213;28;20538;-86
2022/09/28 02:50:17;;;;;;;2.50;1.50;;;6.30;99.90;;;;;;5093295;28;20423;-86
2022/09/28 02:53:07;;;;;;;2.40;1.37;;;6.20;99.90;;;;;;5093317;28;20597;-87
2022/09/28 02:56:03;;;;;;;4.03;1.03;;;6.20;99.90;;;;;;5093024;28;20906;-86
2022/09/28 02:58:52;;;;;;;1.70;0.80;;;6.20;99.90;;;;;;5093298;28;20400;-86
2022/09/28 03:01:44;;;;;;;2.60;1.50;;;6.10;99.90;;;;;;5093294;28;20486;-86
2022/09/28 03:04:36;;;;;;;2.50;0.97;;;6.10;99.90;;;;;;5093069;28;20540;-85
2022/09/28 03:07:16;;;;;;;5.37;1.20;;;6.10;99.90;;;;;;5075105;28;20424;-85
2022/09/28 03:10:04;;;;;;;2.63;1.00;;;6.10;99.90;;;;;;5096735;28;20477;-85
2022/09/28 03:12:32;;;;;;;2.93;1.33;;;6.20;99.90;;;;;;5079145;28;20931;-85
2022/09/28 03:15:12;;;;;;;2.13;1.00;;;6.20;99.90;;;;;;5097172;28;20415;-86
2022/09/28 03:17:38;;;;;;;3.93;0.80;;;6.20;99.90;;;;;;5097237;28;20413;-86
2022/09/28 03:20:04;;;;;;;2.97;1.57;;;6.20;99.90;;;;;;5079126;28;20466;-87
2022/09/28 03:22:30;;;;;;;5.10;1.27;;;6.10;99.90;;;;;;5078898;28;20787;-85
2022/09/28 03:24:55;;;;;;;4.03;2.20;;;6.20;99.90;;;;;;5078453;28;20549;-86
2022/09/28 03:27:21;;;;;;;2.10;1.10;;;6.30;99.90;;;;;;5097180;28;20167;-85
2022/09/28 03:29:47;;;;;;;2.63;1.13;;;6.40;99.90;;;;;;5078839;28;20181;-85
2022/09/28 03:32:12;;;;;;;3.10;1.10;;;6.40;99.90;;;;;;5096582;28;20162;-85
2022/09/28 03:34:38;;;;;;;3.20;1.73;;;6.50;99.90;;;;;;5096889;28;20209;-84
2022/09/28 03:37:03;;;;;;;3.00;1.03;;;6.50;99.90;;;;;;5096887;28;20256;-85
2022/09/28 03:39:29;;;;;;;2.50;1.53;;;6.60;99.90;;;;;;5096463;28;20212;-85
2022/09/28 03:41:55;;;;;;;4.30;2.67;;;6.70;99.90;;;;;;5096405;28;20263;-86
2022/09/28 03:44:20;;;;;;;3.50;1.67;;;6.70;99.90;;;;;;5096590;28;20560;-85
2022/09/28 03:46:46;;;;;;;3.90;1.87;;;6.80;99.90;;;;;;5096454;28;20209;-84
2022/09/28 03:49:11;;;;;;;6.37;2.70;;;6.90;99.90;;;;;;5085249;28;20189;-85
2022/09/28 03:51:37;;;;;;;5.83;2.87;;;7.00;99.90;;;;;;5076187;28;20288;-84
2022/09/28 03:54:03;;;;;;;10.37;4.40;;;7.00;99.90;;;;;;5075600;28;20185;-85
2022/09/28 03:56:29;;;;;;;14.13;3.73;;;6.90;99.90;;;;;;5075828;28;20201;-88
2022/09/28 03:58:54;;;;;;;4.73;3.20;;;6.90;99.90;;;;;;5080750;28;20450;-84
2022/09/28 04:01:20;;;;;;;16.93;3.07;;;6.90;99.90;;;;;;5077686;28;20465;-85
2022/09/28 04:03:46;;;;;;;13.07;3.60;;;7.00;99.90;;;;;;5095092;28;20179;-86
2022/09/28 04:06:12;;;;;;;17.53;5.27;;;7.00;99.90;;;;;;5078166;28;20194;-85
2022/09/28 04:08:38;;;;;;;17.97;4.10;;;7.00;99.90;;;;;;5077655;28;20455;-85
2022/09/28 04:11:04;;;;;;;23.37;4.43;;;7.00;99.90;;;;;;5096250;28;20481;-86
2022/09/28 04:13:30;;;;;;;19.40;4.03;;;6.90;99.90;;;;;;5096203;28;20782;-86
2022/09/28 04:15:57;;;;;;;46.23;6.73;;;6.90;99.90;;;;;;5096148;28;20182;-86
2022/09/28 04:18:24;;;;;;;21.90;4.30;;;6.80;99.90;;;;;;5065783;28;20430;-86
2022/09/28 04:21:05;;;;;;;17.57;6.07;;;6.70;99.90;;;;;;5077711;28;20418;-86
2022/09/28 04:23:32;;;;;;;26.23;4.50;;;6.70;99.90;;;;;;5056932;28;20457;-86
2022/09/28 04:25:57;;;;;;;10.33;4.40;;;6.70;99.90;;;;;;5079040;28;20422;-88
2022/09/28 04:31:09;;;;;;;13.10;3.70;;;6.70;99.90;;;;;;5090852;28;20312;-86
2022/09/28 04:33:35;;;;;;;18.37;3.70;;;6.70;99.90;;;;;;5095033;28;20424;-85
2022/09/28 04:36:00;;;;;;;27.80;4.00;;;6.40;99.90;;;;;;5074685;28;20921;-87
2022/09/28 04:38:26;;;;;;;5.03;2.57;;;6.40;99.90;;;;;;5074328;28;20262;-86
2022/09/28 04:40:51;;;;;;;15.83;4.20;;;6.60;99.90;;;;;;5077859;28;20187;-86
2022/09/28 04:43:17;;;;;;;10.10;2.40;;;6.50;99.90;;;;;;5075129;28;20183;-87
2022/09/28 04:45:42;;;;;;;8.27;3.43;;;6.40;99.90;;;;;;5075254;28;20290;-86
2022/09/28 04:48:08;;;;;;;13.63;3.67;;;6.40;99.90;;;;;;5037457;28;20182;-86
2022/09/28 04:50:33;;;;;;;17.43;2.20;;;6.30;99.90;;;;;;5037315;28;20258;-86
2022/09/28 04:53:02;;;;;;;13.60;3.40;;;6.30;99.90;;;;;;5037334;28;20221;-87
2022/09/28 04:55:31;;;;;;;10.03;3.97;;;6.30;99.90;;;;;;5036935;28;20181;-88
2022/09/28 04:58:02;;;;;;;15.20;3.60;;;6.40;99.90;;;;;;5037202;28;20411;-86
2022/09/28 05:00:32;;;;;;;8.77;3.70;;;6.50;99.90;;;;;;5055043;28;20422;-86
2022/09/28 05:02:58;;;;;;;6.90;3.40;;;6.50;99.90;;;;;;5054996;28;20419;-86
2022/09/28 05:05:23;;;;;;;21.53;4.13;;;6.40;99.90;;;;;;5054678;28;20474;-85
2022/09/28 05:07:49;;;;;;;10.07;3.53;;;6.30;99.90;;;;;;5054980;28;20208;-85
2022/09/28 05:10:14;;;;;;;9.43;4.27;;;6.40;99.90;;;;;;5054722;28;20178;-85
2022/09/28 05:12:40;;;;;;;6.30;3.23;;;6.40;99.90;;;;;;5046189;28;20648;-85
2022/09/28 05:15:06;;;;;;;7.60;4.67;;;6.40;99.90;;;;;;5060527;28;20190;-86
2022/09/28 05:17:31;;;;;;;15.43;4.87;;;6.60;99.90;;;;;;5060152;28;20199;-86
2022/09/28 05:19:57;;;;;;;8.40;4.33;;;6.50;99.90;;;;;;5041102;28;20458;-86
2022/09/28 05:22:22;;;;;;;7.63;3.80;;;6.60;99.90;;;;;;5038110;28;20172;-87
2022/09/28 05:24:47;;;;;;;10.50;4.70;;;6.60;99.90;;;;;;5037695;28;20225;-85
2022/09/28 05:27:16;;;;;;;9.90;5.00;;;6.60;99.90;;;;;;5036737;28;20220;-86
2022/09/28 05:29:41;;;;;;;10.20;3.80;;;6.60;99.90;;;;;;5036829;28;20180;-86
2022/09/28 05:32:07;;;;;;;8.50;4.57;;;6.70;99.90;;;;;;5035835;28;20418;-86
2022/09/28 05:34:32;;;;;;;7.70;4.00;;;6.80;99.90;;;;;;5054528;28;20530;-85
2022/09/28 05:36:58;;;;;;;10.30;6.43;;;6.80;99.90;;;;;;5054540;28;20168;-86
2022/09/28 05:39:23;;;;;;;10.93;4.30;;;6.80;99.90;;;;;;5036168;28;20185;-86
2022/09/28 05:41:49;;;;;;;11.53;4.97;;;6.80;99.90;;;;;;5036305;28;20215;-85
2022/09/28 05:44:14;;;;;;;10.77;5.13;;;6.80;99.90;;;;;;5036275;28;20202;-86
2022/09/28 05:46:40;;;;;;;17.60;6.13;;;6.80;99.90;;;;;;5044075;28;20370;-85
2022/09/28 05:49:05;;;;;;;13.57;5.20;;;6.90;99.90;;;;;;5056288;28;20191;-86
2022/09/28 05:51:31;;;;;;;8.47;4.70;;;6.90;99.90;;;;;;5056348;28;20208;-85
2022/09/28 05:53:56;;;;;;;9.70;5.10;;;7.00;99.90;;;;;;5056045;28;20183;-85
2022/09/28 05:56:22;;;;;;;23.93;5.90;;;6.90;99.90;;;;;;5056192;28;20272;-84
2022/09/28 05:58:47;;;;;;;18.37;6.27;;;6.80;99.90;;;;;;5055996;28;20182;-84
2022/09/28 06:01:13;;;;;;;17.60;7.40;;;6.80;99.90;;;;;;5056185;28;20202;-84
2022/09/28 06:03:38;;;;;;;13.93;6.30;;;6.70;99.90;;;;;;5073629;28;20182;-84
2022/09/28 06:06:04;;;;;;;20.37;6.23;;;6.90;99.90;;;;;;5073849;28;20208;-85
2022/09/28 06:08:31;;;;;;;13.00;5.93;;;6.80;99.90;;;;;;5055500;28;20228;-85
2022/09/28 06:11:01;;;;;;;11.20;5.50;;;7.00;99.90;;;;;;5073601;28;20177;-86
2022/09/28 06:13:27;;;;;;;13.37;5.33;;;6.90;99.90;;;;;;5055725;28;20441;-85
2022/09/28 06:15:53;;;;;;;10.20;5.37;;;6.90;99.90;;;;;;5056028;28;20425;-86
2022/09/28 06:18:19;;;;;;;11.13;5.43;;;7.00;99.90;;;;;;5073892;28;20766;-85
2022/09/28 06:20:44;;;;;;;19.80;7.70;;;7.10;99.90;;;;;;5073762;28;20174;-87
2022/09/28 06:23:11;;;;;;;16.73;7.07;;;7.10;99.90;;;;;;5073325;28;20177;-86
2022/09/28 06:25:37;;;;;;;13.20;6.73;;;7.10;99.90;;;;;;5073507;28;20208;-85
2022/09/28 06:28:05;;;;;;;14.37;6.43;;;7.00;99.90;;;;;;5076083;28;20410;-85
2022/09/28 06:30:33;;;;;;;18.73;7.10;;;6.90;99.90;;;;;;5061243;28;20434;-86
2022/09/28 06:33:00;;;;;;;18.27;6.27;;;7.00;99.90;;;;;;5073804;28;20493;-85
2022/09/28 06:35:29;;;;;;;18.63;7.27;;;7.00;99.90;;;;;;5056721;28;20422;-88
2022/09/28 06:37:55;;;;;;;15.07;7.63;;;7.00;99.90;;;;;;5056561;28;20420;-85
2022/09/28 06:40:21;;;;;;;15.53;6.13;;;7.00;99.90;;;;;;5073688;28;20404;-86
2022/09/28 06:43:01;;;;;;;9.30;5.60;;;7.00;99.90;;;;;;5073199;28;20424;-84
2022/09/28 06:45:29;;;;;;;17.87;6.60;;;7.10;99.90;;;;;;5073251;28;20477;-86
2022/09/28 06:47:59;;;;;;;12.30;6.03;;;7.20;99.90;;;;;;5073178;28;20490;-85
2022/09/28 06:50:27;;;;;;;13.07;7.27;;;7.40;99.90;;;;;;5073548;28;20907;-85
2022/09/28 06:52:53;;;;;;;15.10;6.90;;;7.50;99.90;;;;;;5055330;28;20422;-85
2022/09/28 06:55:20;;;;;;;14.23;7.33;;;7.40;99.90;;;;;;5080678;28;20424;-85
2022/09/28 06:57:46;;;;;;;14.87;7.53;;;7.40;99.90;;;;;;5075601;28;20937;-84
2022/09/28 07:00:13;;;;;;;16.00;8.80;;;7.30;99.90;;;;;;5075170;28;20418;-84
2022/09/28 07:02:38;;;;;;;13.53;7.47;;;7.30;99.90;;;;;;5075124;28;20421;-84
2022/09/28 07:05:06;;;;;;;11.63;7.27;;;7.40;99.90;;;;;;5093145;28;20469;-85
2022/09/28 07:07:32;;;;;;;11.83;6.87;;;7.50;99.90;;;;;;5093337;28;20229;-84
2022/09/28 07:09:58;;;;;;;13.87;8.27;;;7.40;99.90;;;;;;5092737;28;20505;-84
2022/09/28 07:12:24;;;;;;;13.90;6.20;;;7.50;99.90;;;;;;5093242;28;20169;-85
2022/09/28 07:14:55;;;;;;;14.87;8.30;;;7.50;99.90;;;;;;5093596;28;20256;-85
2022/09/28 07:17:21;;;;;;;19.50;7.80;;;7.60;99.90;;;;;;5093987;28;20397;-87
2022/09/28 07:19:51;;;;;;;22.20;8.20;;;7.70;99.90;;;;;;5093865;28;20408;-86
2022/09/28 07:22:19;;;;;;;14.57;10.10;;;7.80;99.90;;;;;;5075678;28;20424;-84
2022/09/28 07:24:46;;;;;;;12.87;7.93;;;7.60;99.90;;;;;;5092814;28;20468;-83
2022/09/28 07:27:12;;;;;;;22.63;9.97;;;7.70;99.90;;;;;;5093766;28;20406;-83
2022/09/28 07:29:40;;;;;;;16.73;9.93;;;7.70;99.90;;;;;;5093631;28;20409;-83
2022/09/28 07:32:07;;;;;;;13.90;8.50;;;7.80;99.90;;;;;;5093418;28;20221;-89
2022/09/28 07:34:38;;;;;;;13.80;7.93;;;7.90;99.90;;;;;;5075907;28;20426;-83
2022/09/28 07:37:04;;;;;;;16.67;9.90;;;7.80;99.90;;;;;;5093327;28;20414;-90
2022/09/28 07:39:29;;;;;;;17.57;9.90;;;7.90;99.90;;;;;;5092673;28;20407;-84
2022/09/28 07:41:55;;;;;;;18.73;10.17;;;7.90;99.90;;;;;;5074992;28;20199;-83
2022/09/28 07:44:21;;;;;;;16.27;8.87;;;8.00;99.90;;;;;;5094030;28;20196;-85
2022/09/28 07:46:46;;;;;;;15.13;8.67;;;8.10;99.90;;;;;;5092939;28;20564;-84
2022/09/28 07:49:14;;;;;;;16.13;9.47;;;8.10;99.90;;;;;;5093240;28;20671;-84
2022/09/28 07:51:42;;;;;;;20.20;10.00;;;8.20;99.90;;;;;;5092975;28;20164;-82
2022/09/28 07:54:07;;;;;;;55.17;29.67;;;8.20;99.90;;;;;;5093634;28;20763;-90
2022/09/28 07:56:33;;;;;;;23.57;13.07;;;8.40;99.90;;;;;;5096793;28;20514;-83
2022/09/28 07:58:59;;;;;;;18.57;10.10;;;8.30;99.90;;;;;;5096938;28;20574;-92
2022/09/28 08:01:24;;;;;;;17.83;9.60;;;8.40;99.90;;;;;;5097362;28;20442;-85
2022/09/28 08:03:50;;;;;;;24.17;9.67;;;8.40;99.90;;;;;;5097008;28;20172;-90
2022/09/28 08:06:16;;;;;;;17.90;9.30;;;8.20;99.90;;;;;;5097664;28;20199;-88
2022/09/28 08:08:43;;;;;;;19.23;11.03;;;8.20;99.90;;;;;;5097033;28;20167;-89
2022/09/28 08:11:14;;;;;;;16.70;10.17;;;8.30;99.90;;;;;;5096079;28;20416;-87
2022/09/28 08:13:40;;;;;;;16.97;10.10;;;8.40;99.90;;;;;;5096251;28;20445;-87
2022/09/28 08:16:07;;;;;;;24.90;12.47;;;8.50;99.90;;;;;;5096293;28;20924;-87
2022/09/28 08:18:34;;;;;;;19.63;10.63;;;8.50;99.90;;;;;;5095932;28;20402;-81
2022/09/28 08:23:48;;;;;;;20.17;11.20;;;8.80;99.90;;;;;;5096078;28;20399;-89
2022/09/28 08:26:15;;;;;;;16.17;11.07;;;8.80;99.90;;;;;;5096563;28;20415;-88
2022/09/28 08:28:42;;;;;;;17.23;10.80;;;9.10;99.90;;;;;;5097183;28;20400;-90
2022/09/28 08:31:08;;;;;;;20.50;12.90;;;9.10;99.90;;;;;;5097550;28;20408;-91
2022/09/28 08:33:34;;;;;;;20.40;11.47;;;9.10;99.90;;;;;;5096972;28;20412;-92
2022/09/28 08:36:01;;;;;;;17.40;10.30;;;8.90;99.90;;;;;;5097203;28;20499;-92
2022/09/28 08:38:29;;;;;;;21.90;12.30;;;8.90;99.90;;;;;;5096977;28;20477;-92
2022/09/28 08:41:04;;;;;;;17.60;10.83;;;8.80;99.90;;;;;;5096856;28;20409;-91
2022/09/28 08:44:01;;;;;;;16.70;11.50;;;8.90;99.90;;;;;;5096673;28;20761;-92
2022/09/28 08:46:39;;;;;;;18.20;10.50;;;8.80;99.90;;;;;;5096635;28;20456;-92
2022/09/28 08:49:24;;;;;;;19.63;12.30;;;9.00;99.90;;;;;;5096775;28;20472;-89
2022/09/28 08:51:55;;;;;;;24.07;12.40;;;9.00;99.90;;;;;;5096924;28;20752;-90
2022/09/28 08:54:32;;;;;;;21.27;13.13;;;8.90;99.90;;;;;;5096323;28;20410;-92
2022/09/28 08:57:03;;;;;;;16.07;9.50;;;8.90;99.90;;;;;;5096534;28;20895;-86
2022/09/28 08:59:42;;;;;;;23.33;10.60;;;9.00;99.90;;;;;;5096620;28;20420;-91
2022/09/28 09:02:16;;;;;;;15.23;8.40;;;9.10;99.90;;;;;;5095945;28;20433;-85
2022/09/28 09:04:45;;;;;;;19.30;11.50;;;9.50;99.90;;;;;;5094680;28;20943;-88
2022/09/28 09:07:44;;;;;;;23.40;12.40;;;9.20;99.90;;;;;;5095051;28;20419;-87
2022/09/28 09:10:49;;;;;;;16.30;9.60;;;9.00;99.90;;;;;;5076848;28;20429;-83
2022/09/28 09:13:39;;;;;;;14.87;9.40;;;9.10;99.90;;;;;;5091761;28;20421;-84
2022/09/28 09:16:40;;;;;;;15.70;9.10;;;9.20;99.90;;;;;;5080098;28;20960;-85
2022/09/28 09:19:34;;;;;;;13.20;8.80;;;9.20;99.90;;;;;;5074235;28;20416;-84
2022/09/28 09:22:25;;;;;;;15.00;9.63;;;9.20;99.90;;;;;;5055955;28;20472;-83
2022/09/28 09:25:15;;;;;;;18.03;10.67;;;9.20;99.90;;;;;;5073860;28;20467;-93
2022/09/28 09:27:46;;;;;;;15.13;10.17;;;9.40;99.90;;;;;;5073504;28;20425;-85
2022/09/28 09:30:15;;;;;;;18.67;9.77;;;9.40;99.90;;;;;;5056424;28;20420;-85
2022/09/28 09:33:16;;;;;;;16.67;10.53;;;9.60;99.90;;;;;;5074542;28;20973;-84
2022/09/28 09:36:01;;;;;;;15.93;10.77;;;9.60;99.90;;;;;;5074230;28;20809;-86
2022/09/28 09:38:58;;;;;;;15.10;11.20;;;9.60;99.90;;;;;;5056656;28;20518;-83
2022/09/28 09:41:50;;;;;;;14.47;8.53;;;9.70;99.90;;;;;;5074105;28;20501;-85
2022/09/28 09:44:51;;;;;;;14.33;10.07;;;9.70;99.90;;;;;;5074120;28;20603;-85
2022/09/28 09:47:38;;;;;;;18.33;9.80;;;10.00;99.90;;;;;;5066135;28;20472;-85
2022/09/28 09:50:31;;;;;;;12.53;8.70;;;10.30;99.90;;;;;;5074079;28;20426;-84
2022/09/28 09:53:14;;;;;;;16.70;9.33;;;10.80;99.90;;;;;;5056600;28;20559;-84
2022/09/28 09:55:45;;;;;;;13.83;8.73;;;10.90;99.90;;;;;;5073996;28;20421;-86
2022/09/28 09:58:21;;;;;;;13.23;9.20;;;11.00;99.90;;;;;;5073887;28;20934;-86
2022/09/28 10:00:50;;;;;;;13.37;7.37;;;11.00;99.90;;;;;;5073954;28;20426;-86
2022/09/28 10:03:26;;;;;;;14.40;9.63;;;10.90;99.90;;;;;;5073693;28;20415;-86
2022/09/28 10:06:23;;;;;;;11.70;8.83;;;10.60;99.90;;;;;;5073847;28;20466;-87
2022/09/28 10:09:00;;;;;;;13.97;9.13;;;10.30;99.90;;;;;;5055015;28;20776;-85
2022/09/28 10:11:30;;;;;;;12.40;8.30;;;10.40;99.90;;;;;;5073733;28;20421;-85
2022/09/28 10:13:56;;;;;;;13.07;7.30;;;10.40;99.90;;;;;;5073547;28;20408;-86
2022/09/28 10:16:25;;;;;;;14.00;9.23;;;10.50;99.90;;;;;;5073144;28;20480;-86
2022/09/28 10:18:50;;;;;;;14.00;7.10;;;10.50;99.90;;;;;;5071943;28;20461;-85
2022/09/28 10:21:19;;;;;;;12.10;6.27;;;10.40;99.90;;;;;;5073493;28;20452;-86
2022/09/28 10:23:46;;;;;;;10.77;6.83;;;10.50;99.90;;;;;;5073020;28;20157;-86
2022/09/28 10:26:23;;;;;;;12.07;7.20;;;10.80;99.90;;;;;;5073006;28;20943;-85
2022/09/28 10:29:00;;;;;;;11.73;8.07;;;11.10;99.90;;;;;;5073334;28;20493;-84
2022/09/28 10:31:34;;;;;;;13.03;7.87;;;11.30;99.90;;;;;;5073266;28;20420;-85
2022/09/28 10:34:00;;;;;;;11.60;7.37;;;11.30;99.90;;;;;;5071983;28;20420;-85
2022/09/28 10:36:26;;;;;;;10.63;6.97;;;11.20;99.90;;;;;;5073728;28;20784;-85
2022/09/28 10:38:53;;;;;;;9.50;6.70;;;11.30;99.90;;;;;;5084026;28;20202;-85
2022/09/28 10:41:21;;;;;;;13.30;8.10;;;11.60;99.90;;;;;;5094310;28;20972;-85
2022/09/28 10:44:09;;;;;;;12.17;8.20;;;11.50;99.90;;;;;;5101698;28;21044;-85
2022/09/28 10:46:37;;;;;;;12.70;8.70;;;11.50;99.90;;;;;;5095030;28;20462;-87
2022/09/28 10:49:20;;;;;;;11.67;7.43;;;11.30;99.90;;;;;;5093224;28;20399;-85
2022/09/28 10:51:52;;;;;;;12.80;7.20;;;11.10;99.90;;;;;;5093837;28;20406;-86
2022/09/28 10:54:22;;;;;;;15.07;9.13;;;10.90;99.90;;;;;;5092567;28;20497;-85
2022/09/28 10:56:49;;;;;;;11.93;7.53;;;11.40;99.90;;;;;;5074358;28;20452;-85
2022/09/28 10:59:30;;;;;;;11.90;6.77;;;11.70;99.90;;;;;;5092687;28;20406;-84
2022/09/28 11:01:57;;;;;;;14.67;7.77;;;11.60;99.90;;;;;;5092596;28;20861;-85
2022/09/28 11:04:26;;;;;;;8.97;6.27;;;11.50;99.90;;;;;;5092944;28;20887;-85
2022/09/28 11:06:58;;;;;;;11.60;7.30;;;11.50;99.90;;;;;;5093645;28;20422;-85
2022/09/28 11:09:39;;;;;;;7.60;6.00;;;11.70;99.90;;;;;;5093104;28;20399;-85
2022/09/28 11:12:13;;;;;;;8.37;6.30;;;11.90;99.90;;;;;;5093429;28;20459;-84
2022/09/28 11:14:42;;;;;;;10.40;6.13;;;11.90;1.00;;;;;;5093606;28;20506;-81
2022/09/28 11:17:37;;;;;;;11.37;7.13;;;11.80;1.00;;;;;;5093287;28;20769;-81
2022/09/28 11:20:25;;;;;;;8.30;5.23;;;13.40;99.90;;;;;;5091141;28;20774;-86
2022/09/28 11:22:56;;;;;;;8.73;4.50;;;13.40;1.00;;;;;;5092828;28;20409;-84
2022/09/28 11:25:23;;;;;;;8.30;6.20;;;15.10;99.90;;;;;;5093458;28;20519;-85
2022/09/28 11:27:52;;;;;;;8.83;6.27;;;14.90;1.00;;;;;;5093434;28;20465;-84
2022/09/28 11:30:41;;;;;;;8.70;5.37;;;14.20;1.00;;;;;;5096322;28;20433;-80
2022/09/28 11:33:10;;;;;;;9.30;6.40;;;15.40;99.90;;;;;;5097347;28;20410;-81
2022/09/28 11:36:03;;;;;;;7.80;6.20;;;16.30;90.50;;;;;;5097341;28;20413;-83
2022/09/28 11:38:38;;;;;;;8.30;5.70;;;14.70;1.00;;;;;;5096491;28;20404;-85
2022/09/28 11:41:32;;;;;;;6.73;4.80;;;14.20;1.00;;;;;;5096850;28;20453;-83
2022/09/28 11:44:16;;;;;;;13.43;6.10;;;15.30;99.90;;;;;;5096945;28;20406;-85
2022/09/28 11:47:05;;;;;;;6.37;4.70;;;16.90;74.20;;;;;;5096971;28;20482;-87
2022/09/28 11:49:44;;;;;;;4.20;3.80;;;17.80;1.00;;;;;;5096921;28;20410;-85
2022/09/28 11:52:21;;;;;;;5.30;3.60;;;15.90;1.00;;;;;;5096221;28;20402;-84
2022/09/28 11:54:54;;;;;;;6.20;4.57;;;17.30;1.00;;;;;;5096541;28;20406;-83
2022/09/28 11:57:25;;;;;;;5.40;3.83;;;18.50;99.90;;;;;;5096459;28;20499;-84
2022/09/28 12:00:07;;;;;;;7.30;3.63;;;17.60;99.90;;;;;;5096405;28;20483;-86
2022/09/28 12:02:41;;;;;;;6.10;4.30;;;17.90;99.90;;;;;;5096313;28;20432;-85
2022/09/28 12:05:28;;;;;;;4.63;3.87;;;18.40;99.90;;;;;;5077842;28;20473;-87
2022/09/28 12:07:58;;;;;;;3.40;2.70;;;19.20;99.90;;;;;;5095947;28;20442;-86
2022/09/28 12:10:36;;;;;;;4.50;2.77;;;18.80;99.90;;;;;;5077504;28;20437;-84
2022/09/28 12:13:19;;;;;;;4.10;2.77;;;16.50;99.90;;;;;;5096134;28;20902;-86
2022/09/28 12:15:47;;;;;;;4.30;3.10;;;15.20;1.00;;;;;;5096178;28;20440;-87
2022/09/28 12:18:36;;;;;;;4.40;3.40;;;16.70;99.90;;;;;;5077995;28;20803;-84
2022/09/28 12:21:20;;;;;;;4.70;3.30;;;16.20;99.90;;;;;;5096363;28;20421;-85
2022/09/28 12:23:47;;;;;;;5.70;4.57;;;16.40;1.00;;;;;;5095410;28;20410;-82
2022/09/28 12:26:28;;;;;;;6.07;3.53;;;16.40;99.90;;;;;;5095993;28;20510;-81
2022/09/28 12:28:59;;;;;;;3.47;2.77;;;15.60;99.90;;;;;;5095662;28;20406;-85
2022/09/28 12:31:38;;;;;;;5.00;3.40;;;15.40;1.00;;;;;;5077698;28;20476;-83
2022/09/28 12:34:04;;;;;;;4.23;3.83;;;14.80;1.00;;;;;;5077550;28;20504;-79
2022/09/28 12:36:59;;;;;;;4.90;3.23;;;15.30;99.90;;;;;;5095782;28;20422;-82
2022/09/28 12:39:42;;;;;;;3.50;3.03;;;16.80;99.90;;;;;;5095227;28;20903;-81
2022/09/28 12:42:51;;;;;;;4.20;3.30;;;17.10;99.90;;;;;;5095503;28;20429;-82
2022/09/28 12:45:40;;;;;;;3.43;3.10;;;18.10;99.90;;;;;;5095242;28;20470;-81
2022/09/28 12:49:01;;;;;;;3.70;3.40;;;18.20;99.90;;;;;;5077144;28;20441;-82
2022/09/28 12:51:51;;;;;;;4.10;2.10;;;18.00;99.90;;;;;;5070944;28;20423;-82
2022/09/28 12:54:43;;;;;;;3.90;2.60;;;17.80;99.90;;;;;;5094931;28;20410;-82
2022/09/28 12:57:27;;;;;;;3.70;2.90;;;17.40;99.90;;;;;;5095221;28;20470;-82
2022/09/28 13:00:14;;;;;;;2.97;2.70;;;16.10;99.90;;;;;;5095203;28;20449;-83
2022/09/28 13:03:30;;;;;;;3.30;2.87;;;14.70;1.00;;;;;;5095042;28;20402;-82
2022/09/28 13:06:04;;;;;;;2.87;2.20;;;14.20;99.90;;;;;;5074604;28;20470;-83
2022/09/28 13:09:14;;;;;;;4.30;2.30;;;13.70;1.00;;;;;;5094579;28;20414;-81
2022/09/28 13:11:57;;;;;;;3.27;2.10;;;13.70;1.00;;;;;;5015806;28;20433;-81
2022/09/28 13:14:51;;;;;;;5.20;2.97;;;13.70;1.00;;;;;;5089501;28;20469;-84
2022/09/28 13:17:46;;;;;;;6.53;3.80;;;13.70;29.20;;;;;;5076758;28;20433;-81
2022/09/28 13:20:11;;;;;;;4.33;2.90;;;13.40;99.90;;;;;;5094851;28;20418;-81
2022/09/28 13:23:02;;;;;;;3.00;2.20;;;13.40;17.80;;;;;;5094352;28;20416;-81
2022/09/28 13:25:30;;;;;;;2.60;1.93;;;13.10;1.00;;;;;;5076336;28;20213;-82